Time;durP1;ratioP1;P1;durP2;ratioP2;P2;SDS_P1;SDS_P2;PMS_P1;PMS_P2;Temp;Humidity;BMP_temperature;BMP_pressure;BME280_temperature;BME280_humidity;BME280_pressure;Samples;Min_cycle;Max_cycle;Signal;HPM_P1;HPM_P2
2021/03/01 00:00:33;;;;;;;20.43;12.60;;;3.20;99.90;;;;;;5073993;28;20176;-75
2021/03/01 00:02:59;;;;;;;23.70;11.90;;;3.10;99.90;;;;;;5074117;28;20285;-75
2021/03/01 00:05:24;;;;;;;17.57;11.23;;;3.10;99.90;;;;;;5074123;28;20204;-76
2021/03/01 00:07:50;;;;;;;18.40;12.13;;;3.10;99.90;;;;;;5073945;28;20238;-76
2021/03/01 00:10:17;;;;;;;20.40;11.37;;;3.00;99.90;;;;;;5074057;28;20647;-75
2021/03/01 00:12:43;;;;;;;17.55;11.80;;;3.00;99.90;;;;;;5073806;28;20407;-76
2021/03/01 00:15:12;;;;;;;20.65;12.60;;;2.90;99.90;;;;;;5073771;28;20204;-77
2021/03/01 00:17:38;;;;;;;23.40;13.13;;;2.80;99.90;;;;;;5073794;28;20197;-75
2021/03/01 00:20:06;;;;;;;23.98;12.88;;;2.90;99.90;;;;;;5073893;28;20204;-75
2021/03/01 00:22:32;;;;;;;18.60;11.68;;;2.80;99.90;;;;;;5073963;28;20177;-76
2021/03/01 00:24:57;;;;;;;23.67;13.47;;;2.80;99.90;;;;;;5073899;28;20579;-76
2021/03/01 00:27:23;;;;;;;22.60;13.30;;;2.70;99.90;;;;;;5073364;28;20254;-78
2021/03/01 00:29:49;;;;;;;29.30;12.60;;;2.60;99.90;;;;;;5073860;28;20260;-75
2021/03/01 00:32:14;;;;;;;21.90;13.57;;;2.50;99.90;;;;;;5073604;28;20693;-78
2021/03/01 00:34:40;;;;;;;21.97;12.90;;;2.50;99.90;;;;;;5073527;28;20560;-76
2021/03/01 00:37:05;;;;;;;16.40;11.10;;;2.40;99.90;;;;;;5073303;28;20278;-77
2021/03/01 00:39:31;;;;;;;21.40;12.77;;;2.30;99.90;;;;;;5073630;28;20546;-76
2021/03/01 00:41:57;;;;;;;21.93;12.80;;;2.30;99.90;;;;;;5073598;28;20751;-77
2021/03/01 00:44:22;;;;;;;20.83;12.47;;;2.30;99.90;;;;;;5073552;28;20414;-76
2021/03/01 00:46:48;;;;;;;18.50;11.47;;;2.20;99.90;;;;;;5071904;28;20188;-77
2021/03/01 00:49:14;;;;;;;19.60;11.83;;;2.20;99.90;;;;;;5071808;28;20200;-76
2021/03/01 00:51:39;;;;;;;23.97;12.03;;;2.10;99.90;;;;;;5073411;28;20176;-76
2021/03/01 00:54:05;;;;;;;21.00;12.63;;;2.10;99.90;;;;;;5073539;28;20196;-76
2021/03/01 00:56:30;;;;;;;22.73;13.73;;;2.00;99.90;;;;;;5073589;28;20176;-75
2021/03/01 00:58:56;;;;;;;25.37;13.87;;;2.10;99.90;;;;;;5072745;28;20245;-76
2021/03/01 01:01:22;;;;;;;19.30;12.20;;;2.00;99.90;;;;;;5073168;28;20180;-77
2021/03/01 01:03:47;;;;;;;20.03;13.10;;;2.00;99.90;;;;;;5072011;28;20180;-75
2021/03/01 01:06:13;;;;;;;20.70;13.00;;;2.00;99.90;;;;;;5073176;28;20418;-76
2021/03/01 01:08:39;;;;;;;27.03;11.43;;;1.90;99.90;;;;;;5072776;28;20275;-74
2021/03/01 01:11:04;;;;;;;18.07;11.27;;;1.80;99.90;;;;;;5072896;28;20529;-75
2021/03/01 01:13:30;;;;;;;18.63;11.07;;;1.80;99.90;;;;;;5073334;28;20175;-75
2021/03/01 01:15:56;;;;;;;18.70;11.53;;;1.80;99.90;;;;;;5073127;28;20246;-75
2021/03/01 01:18:22;;;;;;;22.60;13.10;;;1.70;99.90;;;;;;5072845;28;20199;-76
2021/03/01 01:20:47;;;;;;;25.60;14.73;;;1.70;99.90;;;;;;5073042;28;20173;-77
2021/03/01 01:23:13;;;;;;;22.40;13.87;;;1.60;99.90;;;;;;5071712;28;20419;-78
2021/03/01 01:25:38;;;;;;;28.20;14.30;;;1.70;99.90;;;;;;5073082;28;20630;-77
2021/03/01 01:28:04;;;;;;;32.00;13.83;;;1.50;99.90;;;;;;5072878;28;20239;-75
2021/03/01 01:30:30;;;;;;;20.13;12.20;;;1.50;99.90;;;;;;5073017;28;20211;-76
2021/03/01 01:32:55;;;;;;;26.97;13.97;;;1.50;99.90;;;;;;5073026;28;20172;-76
2021/03/01 01:35:21;;;;;;;19.97;12.90;;;1.40;99.90;;;;;;5072696;28;20265;-75
2021/03/01 01:37:48;;;;;;;28.75;13.55;;;1.30;99.90;;;;;;5072533;28;20221;-77
2021/03/01 01:40:17;;;;;;;20.35;13.15;;;1.30;99.90;;;;;;5073039;28;20170;-76
2021/03/01 01:42:43;;;;;;;22.50;12.80;;;1.30;99.90;;;;;;5072881;28;20251;-76
2021/03/01 01:45:12;;;;;;;17.55;12.18;;;1.30;99.90;;;;;;5071487;28;20187;-77
2021/03/01 01:47:39;;;;;;;25.75;13.65;;;1.30;99.90;;;;;;5072333;28;20590;-74
2021/03/01 01:50:05;;;;;;;25.15;14.05;;;1.20;99.90;;;;;;5072682;28;20173;-77
2021/03/01 01:52:31;;;;;;;19.38;13.10;;;1.10;99.90;;;;;;5072765;28;20186;-76
2021/03/01 01:54:57;;;;;;;21.13;13.30;;;1.10;99.90;;;;;;5072689;28;20724;-76
2021/03/01 01:57:23;;;;;;;19.73;12.07;;;1.00;99.90;;;;;;5072166;28;20416;-76
2021/03/01 01:59:49;;;;;;;22.08;12.48;;;1.00;99.90;;;;;;5072715;28;20238;-75
2021/03/01 02:02:15;;;;;;;25.27;12.47;;;0.90;99.90;;;;;;5072722;28;20165;-75
2021/03/01 02:04:51;;;;;;;19.83;11.70;;;1.00;99.90;;;;;;5072777;28;20433;-74
2021/03/01 02:07:39;;;;;;;17.55;12.15;;;0.90;99.90;;;;;;5072307;28;20229;-74
2021/03/01 02:10:34;;;;;;;25.00;13.70;;;0.90;99.90;;;;;;5072691;28;20548;-77
2021/03/01 02:13:23;;;;;;;24.15;13.20;;;0.90;99.90;;;;;;5068813;28;20663;-74
2021/03/01 02:15:54;;;;;;;19.40;12.68;;;0.90;99.90;;;;;;5072477;28;20208;-76
2021/03/01 02:18:20;;;;;;;21.70;14.10;;;0.80;99.90;;;;;;5072208;28;20276;-75
2021/03/01 02:20:46;;;;;;;25.57;13.50;;;0.80;99.90;;;;;;5072453;28;20208;-77
2021/03/01 02:23:15;;;;;;;24.13;13.85;;;0.80;99.90;;;;;;5074103;28;20177;-75
2021/03/01 02:26:02;;;;;;;19.42;14.27;;;0.90;99.90;;;;;;5074608;28;20187;-76
2021/03/01 02:28:31;;;;;;;19.27;12.20;;;0.80;99.90;;;;;;5075117;28;20311;-77
2021/03/01 02:31:01;;;;;;;20.65;13.35;;;0.80;99.90;;;;;;5075962;28;20223;-75
2021/03/01 02:33:32;;;;;;;19.10;13.05;;;0.60;99.90;;;;;;5074636;28;20647;-75
2021/03/01 02:36:05;;;;;;;26.73;13.93;;;0.60;99.90;;;;;;5075788;28;20210;-75
2021/03/01 02:38:34;;;;;;;22.90;12.68;;;0.60;99.90;;;;;;5075574;28;20594;-75
2021/03/01 02:41:00;;;;;;;21.65;13.23;;;0.60;99.90;;;;;;5075926;28;20178;-75
2021/03/01 02:43:29;;;;;;;23.67;15.05;;;0.50;99.90;;;;;;5075895;28;20223;-77
2021/03/01 02:45:56;;;;;;;24.90;14.40;;;0.50;99.90;;;;;;5075488;28;20246;-76
2021/03/01 02:48:22;;;;;;;22.30;14.02;;;0.50;99.90;;;;;;5075309;28;20238;-75
2021/03/01 02:50:49;;;;;;;22.60;13.38;;;0.40;99.90;;;;;;5074315;28;20191;-75
2021/03/01 02:53:17;;;;;;;26.70;13.60;;;0.30;99.90;;;;;;5075608;28;20173;-75
2021/03/01 02:55:45;;;;;;;23.48;13.25;;;0.40;99.90;;;;;;5075387;28;20200;-76
2021/03/01 02:58:13;;;;;;;20.45;12.52;;;0.40;99.90;;;;;;5074950;28;20653;-75
2021/03/01 03:00:39;;;;;;;20.80;11.65;;;0.40;99.90;;;;;;5075708;28;20252;-74
2021/03/01 03:03:07;;;;;;;23.88;13.55;;;0.30;99.90;;;;;;5075540;28;20182;-78
2021/03/01 03:05:34;;;;;;;20.00;13.43;;;0.20;99.90;;;;;;5075558;28;20231;-74
2021/03/01 03:08:01;;;;;;;19.77;12.57;;;0.30;99.90;;;;;;5074848;28;20290;-75
2021/03/01 03:10:28;;;;;;;26.30;13.35;;;0.30;99.90;;;;;;5075446;28;20578;-76
2021/03/01 03:12:55;;;;;;;20.55;13.00;;;0.20;99.90;;;;;;5075262;28;20179;-77
2021/03/01 03:15:20;;;;;;;25.90;13.48;;;0.20;99.90;;;;;;5075212;28;20227;-75
2021/03/01 03:17:48;;;;;;;22.43;12.87;;;0.20;99.90;;;;;;5073440;28;20211;-78
2021/03/01 03:20:14;;;;;;;18.02;12.43;;;0.20;99.90;;;;;;5075218;28;20512;-77
2021/03/01 03:22:41;;;;;;;24.40;13.52;;;0.10;99.90;;;;;;5075292;28;20507;-76
2021/03/01 03:25:08;;;;;;;22.52;12.98;;;0.00;99.90;;;;;;5074822;28;20181;-76
2021/03/01 03:27:34;;;;;;;22.08;11.90;;;0.10;99.90;;;;;;5074408;28;20202;-75
2021/03/01 03:29:59;;;;;;;21.57;12.40;;;0.10;99.90;;;;;;5074848;28;20192;-74
2021/03/01 03:32:27;;;;;;;19.23;12.47;;;0.10;99.90;;;;;;5074765;28;20210;-76
2021/03/01 03:34:52;;;;;;;24.10;12.15;;;0.10;99.90;;;;;;5074702;28;20387;-76
2021/03/01 03:37:27;;;;;;;26.60;13.23;;;0.00;99.90;;;;;;5074381;28;20289;-74
2021/03/01 03:39:55;;;;;;;19.98;12.10;;;0.00;99.90;;;;;;5074614;28;20242;-76
2021/03/01 03:42:24;;;;;;;15.93;12.10;;;-0.10;99.90;;;;;;5073247;28;20176;-77
2021/03/01 03:44:54;;;;;;;18.00;12.45;;;-0.10;99.90;;;;;;5074978;28;20173;-77
2021/03/01 03:47:23;;;;;;;21.60;14.00;;;-0.10;99.90;;;;;;5072846;28;20266;-77
2021/03/01 03:49:53;;;;;;;23.02;13.82;;;-0.10;99.90;;;;;;5074500;28;20177;-74
2021/03/01 03:52:23;;;;;;;27.65;12.07;;;-0.10;99.90;;;;;;5072962;28;20177;-76
2021/03/01 03:54:51;;;;;;;24.25;13.88;;;-0.10;99.90;;;;;;5074366;28;20556;-75
2021/03/01 03:57:22;;;;;;;22.98;12.93;;;-0.10;99.90;;;;;;5073945;28;20236;-77
2021/03/01 03:59:50;;;;;;;21.45;12.20;;;-0.20;99.90;;;;;;5074330;28;20177;-76
2021/03/01 04:02:19;;;;;;;23.42;12.48;;;-0.20;99.90;;;;;;5074090;28;20255;-75
2021/03/01 04:04:46;;;;;;;24.00;12.32;;;-0.20;99.90;;;;;;5074100;28;20219;-75
2021/03/01 04:07:14;;;;;;;22.20;11.40;;;-0.20;99.90;;;;;;5073708;28;20169;-75
2021/03/01 04:09:42;;;;;;;20.35;13.52;;;-0.30;99.90;;;;;;5074129;28;20169;-76
2021/03/01 04:12:10;;;;;;;18.42;12.02;;;-0.30;99.90;;;;;;5074073;28;20165;-75
2021/03/01 04:14:38;;;;;;;21.58;11.93;;;-0.30;99.90;;;;;;5073655;28;20205;-76
2021/03/01 04:17:09;;;;;;;18.55;11.82;;;-0.30;99.90;;;;;;5073593;28;20176;-75
2021/03/01 04:19:37;;;;;;;18.40;11.85;;;-0.30;99.90;;;;;;5072793;28;20181;-77
2021/03/01 04:22:04;;;;;;;24.15;13.13;;;-0.30;99.90;;;;;;5073781;28;20176;-74
2021/03/01 04:24:32;;;;;;;22.23;13.25;;;-0.30;99.90;;;;;;5073660;28;20169;-77
2021/03/01 04:27:01;;;;;;;18.58;13.05;;;-0.30;99.90;;;;;;5073422;28;20697;-76
2021/03/01 04:29:28;;;;;;;17.73;12.40;;;-0.30;99.90;;;;;;5073642;28;20203;-75
2021/03/01 04:31:55;;;;;;;21.67;12.00;;;-0.30;99.90;;;;;;5073763;28;20192;-74
2021/03/01 04:34:21;;;;;;;17.02;11.60;;;-0.40;99.90;;;;;;5073587;28;20287;-77
2021/03/01 04:36:48;;;;;;;20.92;12.77;;;-0.40;99.90;;;;;;5073584;28;20169;-77
2021/03/01 04:39:14;;;;;;;22.20;13.38;;;-0.40;99.90;;;;;;5073396;28;20282;-76
2021/03/01 04:41:41;;;;;;;23.50;11.90;;;-0.40;99.90;;;;;;5073641;28;20194;-78
2021/03/01 04:44:10;;;;;;;20.75;12.82;;;-0.50;99.90;;;;;;5073229;28;20177;-75
2021/03/01 04:46:37;;;;;;;24.13;12.70;;;-0.40;99.90;;;;;;5073271;28;20165;-77
2021/03/01 04:49:03;;;;;;;20.48;13.38;;;-0.40;99.90;;;;;;5072927;28;20189;-77
2021/03/01 04:51:30;;;;;;;20.02;12.35;;;-0.40;99.90;;;;;;5073374;28;20256;-75
2021/03/01 04:53:59;;;;;;;19.23;11.98;;;-0.50;99.90;;;;;;5073258;28;20173;-76
2021/03/01 04:56:25;;;;;;;18.60;12.10;;;-0.50;99.90;;;;;;5073316;28;20230;-77
2021/03/01 04:58:52;;;;;;;24.63;14.55;;;-0.60;99.90;;;;;;5072674;28;20202;-76
2021/03/01 05:01:19;;;;;;;22.48;11.95;;;-0.60;99.90;;;;;;5072046;28;20173;-75
2021/03/01 05:03:46;;;;;;;18.88;12.52;;;-0.50;99.90;;;;;;5073316;28;20261;-77
2021/03/01 05:06:12;;;;;;;19.88;14.02;;;-0.60;99.90;;;;;;5073448;28;20200;-76
2021/03/01 05:08:41;;;;;;;22.65;11.93;;;-0.60;99.90;;;;;;5072958;28;20189;-76
2021/03/01 05:11:07;;;;;;;23.98;14.07;;;-0.60;99.90;;;;;;5071931;28;20524;-77
2021/03/01 05:13:34;;;;;;;24.75;13.75;;;-0.60;99.90;;;;;;5073170;28;20764;-76
2021/03/01 05:16:00;;;;;;;24.10;12.57;;;-0.70;99.90;;;;;;5073090;28;20258;-76
2021/03/01 05:18:28;;;;;;;20.73;12.65;;;-0.70;99.90;;;;;;5072783;28;20192;-77
2021/03/01 05:20:55;;;;;;;22.85;12.90;;;-0.80;99.90;;;;;;5072807;28;20165;-75
2021/03/01 05:23:21;;;;;;;21.30;13.10;;;-0.70;99.90;;;;;;5075850;28;20164;-77
2021/03/01 05:25:46;;;;;;;20.70;11.93;;;-0.60;99.90;;;;;;5072637;28;20170;-76
2021/03/01 05:28:12;;;;;;;28.37;14.03;;;-0.70;99.90;;;;;;5072601;28;20423;-76
2021/03/01 05:30:38;;;;;;;25.17;15.13;;;-0.70;99.90;;;;;;5071882;28;20270;-76
2021/03/01 05:33:04;;;;;;;33.73;15.33;;;-0.70;99.90;;;;;;5072962;28;20406;-76
2021/03/01 05:35:30;;;;;;;23.23;13.75;;;-0.70;99.90;;;;;;5072966;28;20574;-76
2021/03/01 05:37:56;;;;;;;26.40;12.97;;;-0.70;99.90;;;;;;5072597;28;20192;-76
2021/03/01 05:40:21;;;;;;;19.90;13.53;;;-0.80;99.90;;;;;;5072813;28;20629;-76
2021/03/01 05:42:49;;;;;;;24.20;13.10;;;-0.80;99.90;;;;;;5072878;28;20234;-76
2021/03/01 05:45:15;;;;;;;23.95;13.50;;;-0.80;99.90;;;;;;5072672;28;20173;-77
2021/03/01 05:47:40;;;;;;;25.57;15.00;;;-0.80;99.90;;;;;;5072489;28;20607;-74
2021/03/01 05:50:09;;;;;;;24.27;14.27;;;-0.80;99.90;;;;;;5071539;28;20930;-76
2021/03/01 05:52:36;;;;;;;22.13;14.40;;;-0.80;99.90;;;;;;5072811;28;20266;-75
2021/03/01 05:55:04;;;;;;;24.08;14.32;;;-1.00;99.90;;;;;;5072648;28;20204;-75
2021/03/01 05:57:30;;;;;;;19.30;11.93;;;-0.90;99.90;;;;;;5074141;28;20195;-77
2021/03/01 05:59:57;;;;;;;22.88;14.25;;;-0.90;99.90;;;;;;5076581;28;20216;-75
2021/03/01 06:02:23;;;;;;;20.98;12.43;;;-0.80;99.90;;;;;;5075183;28;20190;-75
2021/03/01 06:04:49;;;;;;;24.23;14.03;;;-0.80;99.90;;;;;;5076594;28;20329;-75
2021/03/01 06:07:15;;;;;;;25.37;14.80;;;-0.60;99.90;;;;;;5075925;28;20471;-75
2021/03/01 06:09:40;;;;;;;22.30;14.60;;;-0.80;99.90;;;;;;5076164;28;20430;-77
2021/03/01 06:12:06;;;;;;;24.20;13.07;;;-0.70;99.90;;;;;;5076515;28;20634;-73
2021/03/01 06:14:32;;;;;;;26.87;14.17;;;-0.70;99.90;;;;;;5075053;28;20293;-76
2021/03/01 06:17:12;;;;;;;22.13;14.60;;;-0.70;99.90;;;;;;5076107;28;20407;-77
2021/03/01 06:20:00;;;;;;;23.35;13.93;;;-0.70;99.90;;;;;;5076147;28;20406;-74
2021/03/01 06:22:32;;;;;;;24.05;13.90;;;-0.90;99.90;;;;;;5076376;28;20173;-76
2021/03/01 06:25:11;;;;;;;26.40;13.90;;;-0.70;99.90;;;;;;5076265;28;20251;-77
2021/03/01 06:27:53;;;;;;;25.67;13.82;;;-0.70;99.90;;;;;;5075713;28;20197;-75
2021/03/01 06:30:26;;;;;;;24.80;14.65;;;-0.70;99.90;;;;;;5074677;28;20181;-77
2021/03/01 06:33:04;;;;;;;25.00;13.57;;;-0.90;99.90;;;;;;5075800;28;20199;-77
2021/03/01 06:35:55;;;;;;;25.38;15.02;;;-0.80;99.90;;;;;;5075695;28;20572;-74
2021/03/01 06:38:34;;;;;;;21.38;14.85;;;-1.00;99.90;;;;;;5075436;28;20275;-77
2021/03/01 06:41:11;;;;;;;26.27;15.20;;;-0.80;99.90;;;;;;5074671;28;20183;-76
2021/03/01 06:43:40;;;;;;;25.65;14.00;;;-0.80;99.90;;;;;;5075718;28;20174;-75
2021/03/01 06:46:13;;;;;;;25.27;15.13;;;-0.80;99.90;;;;;;5086555;28;20188;-76
2021/03/01 06:48:40;;;;;;;24.73;15.70;;;-0.90;99.90;;;;;;5095567;28;20192;-76
2021/03/01 06:51:06;;;;;;;25.20;14.77;;;-1.00;99.90;;;;;;5095478;28;20180;-76
2021/03/01 06:53:33;;;;;;;24.65;14.82;;;-1.00;99.90;;;;;;5095614;28;20176;-76
2021/03/01 06:56:07;;;;;;;26.75;15.10;;;-1.00;99.90;;;;;;5095643;28;20686;-75
2021/03/01 06:58:33;;;;;;;25.60;15.77;;;-1.00;99.90;;;;;;5095343;28;20599;-74
2021/03/01 07:01:21;;;;;;;26.90;14.68;;;-1.00;99.90;;;;;;5095498;28;20172;-75
2021/03/01 07:03:49;;;;;;;18.58;11.80;;;-0.90;99.90;;;;;;5095515;28;20178;-75
2021/03/01 07:06:15;;;;;;;30.60;15.10;;;-0.80;99.90;;;;;;5095688;28;20202;-76
2021/03/01 07:08:49;;;;;;;23.65;15.38;;;-0.80;99.90;;;;;;5095048;28;20192;-76
2021/03/01 07:11:31;;;;;;;24.77;14.65;;;-0.70;99.90;;;;;;5094379;28;20537;-75
2021/03/01 07:14:05;;;;;;;27.20;16.20;;;-0.60;99.90;;;;;;5091396;28;20192;-75
2021/03/01 07:16:40;;;;;;;25.63;16.00;;;-0.60;99.90;;;;;;5095272;28;20186;-74
2021/03/01 07:19:10;;;;;;;31.25;17.52;;;-0.50;99.90;;;;;;5094388;28;20193;-75
2021/03/01 07:21:38;;;;;;;30.90;15.52;;;-0.40;99.90;;;;;;5094631;28;20186;-75
2021/03/01 07:24:05;;;;;;;28.17;15.95;;;;;;;;;;5094868;28;20167;-74
2021/03/01 07:26:31;;;;;;;25.88;15.93;;;;;;;;;;5093240;28;20175;-76
2021/03/01 07:29:03;;;;;;;26.17;15.75;;;;;;;;;;5092180;28;20242;-76
2021/03/01 07:31:32;;;;;;;25.10;15.45;;;0.10;99.90;;;;;;5095423;28;20609;-76
2021/03/01 07:33:58;;;;;;;30.40;17.58;;;;;;;;;;5093135;28;20190;-74
2021/03/01 07:36:24;;;;;;;30.50;18.10;;;;;;;;;;5094624;28;20200;-78
2021/03/01 07:38:51;;;;;;;30.57;18.10;;;;;;;;;;5094821;28;20192;-79
2021/03/01 07:41:18;;;;;;;30.67;19.70;;;;;;;;;;5094241;28;20404;-78
2021/03/01 07:43:44;;;;;;;30.80;18.60;;;;;;;;;;5094291;28;20639;-77
2021/03/01 07:46:10;;;;;;;38.38;18.33;;;;;;;;;;5094702;28;20172;-76
2021/03/01 07:48:38;;;;;;;32.17;19.48;;;;;;;;;;5093472;28;20214;-78
2021/03/01 07:51:04;;;;;;;25.67;17.00;;;;;;;;;;5094442;28;20323;-77
2021/03/01 07:53:44;;;;;;;26.05;16.05;;;;;;;;;;5094661;28;20190;-75
2021/03/01 07:56:25;;;;;;;28.20;16.75;;;;;;;;;;5091363;28;20214;-76
2021/03/01 07:58:55;;;;;;;36.75;20.20;;;;;;;;;;5094099;28;20302;-75
2021/03/01 08:01:21;;;;;;;36.53;20.02;;;;;;;;;;5094498;28;20161;-78
2021/03/01 08:03:47;;;;;;;34.33;20.42;;;;;;;;;;5091954;28;20171;-77
2021/03/01 08:06:14;;;;;;;35.65;18.85;;;;;;;;;;5094106;28;20582;-76
2021/03/01 08:08:43;;;;;;;35.97;20.20;;;1.40;99.90;;;;;;5093827;28;20234;-74
2021/03/01 08:11:09;;;;;;;36.10;19.95;;;;;;;;;;5092717;28;20175;-77
2021/03/01 08:13:35;;;;;;;40.70;23.00;;;;;;;;;;5094043;28;20174;-75
2021/03/01 08:16:20;;;;;;;31.52;20.23;;;;;;;;;;5093813;28;20210;-77
2021/03/01 08:18:58;;;;;;;37.50;22.85;;;;;;;;;;5090957;28;20349;-78
2021/03/01 08:21:28;;;;;;;41.95;21.92;;;;;;;;;;5092273;28;20178;-76
2021/03/01 08:23:54;;;;;;;38.08;20.90;;;;;;;;;;5092904;28;20178;-77
2021/03/01 08:26:28;;;;;;;39.00;21.55;;;;;;;;;;5093009;28;20319;-76
2021/03/01 08:28:56;;;;;;;40.15;23.33;;;;;;;;;;5093570;28;20262;-75
2021/03/01 08:31:26;;;;;;;45.22;23.33;;;;;;;;;;5092702;28;20228;-76
2021/03/01 08:33:52;;;;;;;48.97;21.38;;;;;;;;;;5093406;28;20168;-75
2021/03/01 08:36:19;;;;;;;36.88;21.75;;;2.90;99.90;;;;;;5089259;28;20207;-77
2021/03/01 08:38:49;;;;;;;36.13;21.02;;;2.80;99.90;;;;;;5081012;28;20246;-75
2021/03/01 08:41:30;;;;;;;35.55;20.52;;;2.90;99.90;;;;;;5084724;28;20164;-74
2021/03/01 08:43:58;;;;;;;35.50;20.88;;;2.90;99.90;;;;;;5093074;28;20220;-75
2021/03/01 08:46:24;;;;;;;29.95;18.70;;;3.10;99.90;;;;;;5092678;28;20180;-74
2021/03/01 08:48:52;;;;;;;28.23;18.73;;;3.20;99.90;;;;;;5093220;28;20200;-74
2021/03/01 08:51:18;;;;;;;30.05;18.52;;;3.20;99.90;;;;;;5091620;28;20180;-76
2021/03/01 08:53:44;;;;;;;30.05;17.90;;;3.40;99.90;;;;;;5091451;28;20176;-73
2021/03/01 08:56:19;;;;;;;29.20;18.80;;;3.40;99.90;;;;;;5093497;28;20614;-75
2021/03/01 08:58:45;;;;;;;33.22;17.80;;;3.60;99.90;;;;;;5092286;28;20677;-72
2021/03/01 09:01:11;;;;;;;25.70;16.13;;;3.80;99.90;;;;;;5092686;28;20176;-74
2021/03/01 09:03:38;;;;;;;28.50;17.17;;;3.90;99.90;;;;;;5093327;28;20172;-73
2021/03/01 09:06:07;;;;;;;24.42;15.35;;;4.20;99.90;;;;;;5092510;28;20186;-74
2021/03/01 09:08:43;;;;;;;30.67;16.67;;;4.30;99.90;;;;;;5092356;28;20725;-73
2021/03/01 09:11:18;;;;;;;23.35;13.82;;;4.60;99.90;;;;;;5093425;28;20167;-73
2021/03/01 09:13:46;;;;;;;20.38;12.93;;;5.00;99.90;;;;;;5091983;28;20711;-74
2021/03/01 09:16:17;;;;;;;19.63;13.13;;;5.40;99.90;;;;;;5091680;28;20207;-74
2021/03/01 09:18:46;;;;;;;21.55;12.40;;;5.50;99.90;;;;;;5092437;28;20219;-75
2021/03/01 09:21:17;;;;;;;21.27;13.60;;;5.80;99.90;;;;;;5092136;28;20178;-76
2021/03/01 09:23:50;;;;;;;19.55;10.80;;;6.10;99.90;;;;;;5083951;28;20177;-76
2021/03/01 09:26:18;;;;;;;16.15;11.27;;;6.40;99.90;;;;;;5081189;28;20176;-73
2021/03/01 09:28:45;;;;;;;18.10;10.68;;;6.70;99.90;;;;;;5081695;28;20601;-74
2021/03/01 09:31:13;;;;;;;11.23;7.70;;;7.00;99.90;;;;;;5084535;28;20526;-76
2021/03/01 09:33:40;;;;;;;12.85;8.88;;;7.30;99.90;;;;;;5087194;28;20577;-76
2021/03/01 09:36:07;;;;;;;10.00;7.07;;;7.60;99.90;;;;;;5084047;28;20196;-73
2021/03/01 09:38:34;;;;;;;13.30;8.17;;;7.90;99.90;;;;;;5085535;28;20187;-75
2021/03/01 09:41:10;;;;;;;16.13;9.40;;;8.30;99.90;;;;;;5086765;28;20415;-75
2021/03/01 09:43:39;;;;;;;10.77;7.47;;;8.50;99.90;;;;;;5084559;28;20422;-77
2021/03/01 09:46:06;;;;;;;11.10;8.80;;;8.20;99.90;;;;;;5086589;28;20407;-75
2021/03/01 09:48:41;;;;;;;10.70;8.10;;;8.30;99.90;;;;;;5085616;28;20431;-75
2021/03/01 09:51:08;;;;;;;11.60;8.20;;;9.00;99.90;;;;;;5081029;28;20426;-74
2021/03/01 09:53:35;;;;;;;11.10;8.40;;;9.40;99.90;;;;;;5084260;28;20421;-77
2021/03/01 09:56:02;;;;;;;12.00;8.07;;;10.00;99.90;;;;;;5084621;28;20429;-74
2021/03/01 09:58:38;;;;;;;10.77;8.53;;;10.50;99.90;;;;;;5084572;28;20456;-74
2021/03/01 10:01:15;;;;;;;9.00;7.43;;;10.70;99.90;;;;;;5085842;28;20418;-74
2021/03/01 10:03:45;;;;;;;11.27;9.10;;;10.50;99.90;;;;;;5074798;28;20415;-72
2021/03/01 10:06:12;;;;;;;10.57;7.50;;;10.90;99.90;;;;;;5075772;28;20442;-75
2021/03/01 10:08:39;;;;;;;11.07;7.80;;;10.70;99.90;;;;;;5074721;28;20438;-74
2021/03/01 10:11:18;;;;;;;12.00;8.70;;;11.50;99.90;;;;;;5075577;28;20388;-75
2021/03/01 10:13:43;;;;;;;10.60;8.30;;;11.00;99.90;;;;;;5076006;28;20404;-73
2021/03/01 10:16:10;;;;;;;13.30;7.53;;;11.00;99.90;;;;;;5074955;28;20458;-74
2021/03/01 10:18:36;;;;;;;10.03;8.30;;;11.10;99.90;;;;;;5075579;28;20185;-72
2021/03/01 10:21:07;;;;;;;9.93;7.53;;;12.00;99.90;;;;;;5076092;28;20476;-76
2021/03/01 10:23:40;;;;;;;12.67;8.93;;;12.70;99.90;;;;;;5075178;28;20188;-73
2021/03/01 10:26:19;;;;;;;12.80;9.73;;;12.60;99.90;;;;;;5075797;28;20409;-75
2021/03/01 10:28:59;;;;;;;9.13;7.87;;;12.30;99.90;;;;;;5075189;28;20430;-76
2021/03/01 10:31:31;;;;;;;9.53;7.70;;;12.50;99.90;;;;;;5074929;28;20403;-74
2021/03/01 10:34:04;;;;;;;11.37;8.50;;;12.20;99.90;;;;;;5075982;28;20402;-74
2021/03/01 10:36:48;;;;;;;12.27;8.27;;;12.50;99.90;;;;;;5075106;28;20466;-74
2021/03/01 10:39:32;;;;;;;10.37;7.97;;;13.20;99.90;;;;;;5073644;28;20434;-73
2021/03/01 10:42:14;;;;;;;9.77;7.47;;;13.10;99.90;;;;;;5075356;28;20407;-74
2021/03/01 10:44:41;;;;;;;10.27;8.50;;;13.40;99.90;;;;;;5074456;28;20527;-74
2021/03/01 10:47:11;;;;;;;8.50;7.40;;;13.60;99.90;;;;;;5074879;28;20411;-73
2021/03/01 10:49:37;;;;;;;12.03;8.93;;;14.00;99.90;;;;;;5075018;28;20935;-73
2021/03/01 10:52:07;;;;;;;12.33;9.10;;;13.10;99.90;;;;;;5075019;28;20860;-73
2021/03/01 10:54:33;;;;;;;12.10;7.53;;;12.90;99.90;;;;;;5075021;28;20447;-74
2021/03/01 10:56:59;;;;;;;9.07;8.10;;;13.10;99.90;;;;;;5074471;28;20418;-72
2021/03/01 10:59:24;;;;;;;12.67;8.57;;;13.40;99.90;;;;;;5074281;28;20807;-74
2021/03/01 11:01:50;;;;;;;11.60;8.77;;;14.00;99.90;;;;;;5075060;28;20177;-74
2021/03/01 11:04:17;;;;;;;17.33;8.43;;;14.60;99.90;;;;;;5074386;28;20169;-75
2021/03/01 11:06:48;;;;;;;9.20;7.67;;;14.80;99.90;;;;;;5073033;28;20199;-75
2021/03/01 11:09:14;;;;;;;12.93;8.53;;;14.40;99.90;;;;;;5074186;28;20457;-75
2021/03/01 11:11:41;;;;;;;10.10;7.63;;;14.40;99.90;;;;;;5074481;28;20411;-77
2021/03/01 11:14:08;;;;;;;10.03;8.30;;;14.40;99.90;;;;;;5074298;28;20419;-72
2021/03/01 11:16:34;;;;;;;10.30;8.67;;;14.60;99.90;;;;;;5074798;28;20390;-76
2021/03/01 11:18:59;;;;;;;11.70;7.97;;;14.80;99.90;;;;;;5082285;28;20437;-74
2021/03/01 11:21:25;;;;;;;10.73;7.80;;;14.80;99.90;;;;;;5093990;28;20746;-75
2021/03/01 11:23:51;;;;;;;11.47;8.47;;;14.70;99.90;;;;;;5094284;28;20218;-75
2021/03/01 11:26:17;;;;;;;10.10;7.10;;;15.10;99.90;;;;;;5094743;28;20172;-76
2021/03/01 11:28:43;;;;;;;9.80;7.00;;;15.20;99.90;;;;;;5093550;28;20454;-76
2021/03/01 11:31:10;;;;;;;9.50;6.73;;;15.30;99.90;;;;;;5092843;28;20172;-72
2021/03/01 11:33:36;;;;;;;8.23;6.50;;;15.90;99.90;;;;;;5087567;28;20414;-73
2021/03/01 11:36:01;;;;;;;7.77;6.43;;;15.90;99.90;;;;;;5093415;28;20816;-75
2021/03/01 11:38:28;;;;;;;8.67;6.60;;;15.90;99.90;;;;;;5094214;28;20422;-74
2021/03/01 11:40:53;;;;;;;10.43;6.90;;;15.80;99.90;;;;;;5094524;28;20259;-74
2021/03/01 11:43:20;;;;;;;8.67;6.40;;;15.30;99.90;;;;;;5094226;28;20493;-75
2021/03/01 11:45:45;;;;;;;10.77;6.33;;;15.80;99.90;;;;;;5094389;28;20181;-76
2021/03/01 11:48:13;;;;;;;7.90;5.87;;;16.30;99.90;;;;;;5094024;28;20404;-76
2021/03/01 11:50:41;;;;;;;7.67;6.40;;;16.20;99.90;;;;;;5093848;28;20176;-75
2021/03/01 11:53:06;;;;;;;7.57;6.23;;;16.70;99.90;;;;;;5094286;28;20828;-74
2021/03/01 11:55:32;;;;;;;8.07;6.23;;;16.90;99.90;;;;;;5092953;28;20457;-74
2021/03/01 11:57:58;;;;;;;8.03;5.40;;;17.40;99.90;;;;;;5091496;28;20285;-73
2021/03/01 12:00:23;;;;;;;7.50;5.83;;;17.40;99.90;;;;;;5092722;28;20190;-75
2021/03/01 12:02:49;;;;;;;7.63;6.77;;;17.10;99.90;;;;;;5094222;28;21135;-75
2021/03/01 12:05:15;;;;;;;8.83;6.50;;;17.10;99.90;;;;;;5094025;28;20211;-77
2021/03/01 12:07:41;;;;;;;7.63;6.30;;;17.30;99.90;;;;;;5093536;28;20282;-75
2021/03/01 12:10:07;;;;;;;9.47;6.37;;;17.80;99.90;;;;;;5092782;28;20910;-76
2021/03/01 12:12:33;;;;;;;8.80;6.30;;;17.70;99.90;;;;;;5093842;28;20179;-75
2021/03/01 12:14:58;;;;;;;7.37;6.23;;;18.10;99.90;;;;;;5093922;28;20470;-75
2021/03/01 12:17:24;;;;;;;7.77;6.13;;;18.30;99.90;;;;;;5093915;28;20528;-75
2021/03/01 12:19:50;;;;;;;7.90;6.23;;;17.80;99.90;;;;;;5093314;28;20695;-75
2021/03/01 12:22:15;;;;;;;7.80;5.67;;;17.90;99.90;;;;;;5075213;28;20181;-75
2021/03/01 12:24:41;;;;;;;9.90;5.73;;;17.80;99.90;;;;;;5072644;28;20187;-72
2021/03/01 12:27:07;;;;;;;8.73;6.60;;;17.90;99.90;;;;;;5071207;28;20195;-73
2021/03/01 12:29:32;;;;;;;8.57;6.03;;;18.50;99.90;;;;;;5073612;28;20172;-75
2021/03/01 12:31:58;;;;;;;6.60;5.83;;;18.80;99.90;;;;;;5073092;28;20181;-73
2021/03/01 12:34:24;;;;;;;7.00;5.80;;;19.30;99.90;;;;;;5073291;28;20252;-74
2021/03/01 12:36:49;;;;;;;7.33;5.57;;;19.00;99.90;;;;;;5073669;28;20176;-73
2021/03/01 12:39:15;;;;;;;8.20;4.90;;;19.10;99.90;;;;;;5072822;28;20272;-75
2021/03/01 12:41:41;;;;;;;6.10;5.20;;;19.20;99.90;;;;;;5073110;28;20263;-78
2021/03/01 12:44:07;;;;;;;6.80;5.60;;;19.40;99.90;;;;;;5073472;28;20215;-74
2021/03/01 12:46:33;;;;;;;8.17;5.23;;;19.30;99.90;;;;;;5072896;28;20404;-72
2021/03/01 12:48:59;;;;;;;9.03;6.13;;;19.40;99.90;;;;;;5072974;28;20520;-74